sensor_id;sensor_type;location;lat;lon;timestamp;temperature;humidity
1129;DHT22;553;51.038;7.216;2023-03-20T00:01:29;9.60;99.90
1129;DHT22;553;51.038;7.216;2023-03-20T00:03:56;9.60;99.90
1129;DHT22;553;51.038;7.216;2023-03-20T00:06:25;9.60;99.90
1129;DHT22;553;51.038;7.216;2023-03-20T00:08:53;9.60;99.90
1129;DHT22;553;51.038;7.216;2023-03-20T00:13:58;9.70;99.90
1129;DHT22;553;51.038;7.216;2023-03-20T00:16:32;9.70;99.90
1129;DHT22;553;51.038;7.216;2023-03-20T00:18:59;9.70;99.90
1129;DHT22;553;51.038;7.216;2023-03-20T00:21:25;9.70;99.90
1129;DHT22;553;51.038;7.216;2023-03-20T00:23:53;9.70;99.90
1129;DHT22;553;51.038;7.216;2023-03-20T00:26:22;9.70;99.90
1129;DHT22;553;51.038;7.216;2023-03-20T00:28:50;9.60;99.90
1129;DHT22;553;51.038;7.216;2023-03-20T00:34:19;9.60;99.90
1129;DHT22;553;51.038;7.216;2023-03-20T00:36:46;9.60;99.90
1129;DHT22;553;51.038;7.216;2023-03-20T00:39:13;9.50;99.90
1129;DHT22;553;51.038;7.216;2023-03-20T00:41:55;9.50;99.90
1129;DHT22;553;51.038;7.216;2023-03-20T00:44:29;9.40;99.90
1129;DHT22;553;51.038;7.216;2023-03-20T00:47:00;9.40;99.90
1129;DHT22;553;51.038;7.216;2023-03-20T00:49:30;9.50;99.90
1129;DHT22;553;51.038;7.216;2023-03-20T00:51:58;9.40;99.90
1129;DHT22;553;51.038;7.216;2023-03-20T00:54:27;9.40;99.90
1129;DHT22;553;51.038;7.216;2023-03-20T00:57:01;9.30;99.90
1129;DHT22;553;51.038;7.216;2023-03-20T00:59:35;9.30;99.90
1129;DHT22;553;51.038;7.216;2023-03-20T01:02:02;9.30;99.90
1129;DHT22;553;51.038;7.216;2023-03-20T01:04:35;9.30;99.90
1129;DHT22;553;51.038;7.216;2023-03-20T01:07:06;9.30;99.90
1129;DHT22;553;51.038;7.216;2023-03-20T01:09:34;9.20;99.90
1129;DHT22;553;51.038;7.216;2023-03-20T01:12:02;9.30;99.90
1129;DHT22;553;51.038;7.216;2023-03-20T01:14:29;9.20;99.90
1129;DHT22;553;51.038;7.216;2023-03-20T01:16:56;9.20;99.90
1129;DHT22;553;51.038;7.216;2023-03-20T01:19:23;9.20;99.90
1129;DHT22;553;51.038;7.216;2023-03-20T01:21:49;9.10;99.90
1129;DHT22;553;51.038;7.216;2023-03-20T01:24:16;9.20;99.90
1129;DHT22;553;51.038;7.216;2023-03-20T01:26:44;9.10;99.90
1129;DHT22;553;51.038;7.216;2023-03-20T01:29:23;9.20;99.90
1129;DHT22;553;51.038;7.216;2023-03-20T01:31:51;9.10;99.90
1129;DHT22;553;51.038;7.216;2023-03-20T01:34:20;9.10;99.90
1129;DHT22;553;51.038;7.216;2023-03-20T01:36:53;9.10;99.90
1129;DHT22;553;51.038;7.216;2023-03-20T01:39:20;9.20;99.90
1129;DHT22;553;51.038;7.216;2023-03-20T01:41:51;9.20;99.90
1129;DHT22;553;51.038;7.216;2023-03-20T01:44:23;9.20;99.90
1129;DHT22;553;51.038;7.216;2023-03-20T01:46:55;9.20;99.90
1129;DHT22;553;51.038;7.216;2023-03-20T01:51:51;9.00;99.90
1129;DHT22;553;51.038;7.216;2023-03-20T01:54:22;9.10;99.90
1129;DHT22;553;51.038;7.216;2023-03-20T01:56:59;9.20;99.90
1129;DHT22;553;51.038;7.216;2023-03-20T01:59:37;9.10;99.90
1129;DHT22;553;51.038;7.216;2023-03-20T02:02:08;9.10;99.90
1129;DHT22;553;51.038;7.216;2023-03-20T02:04:39;9.10;99.90
1129;DHT22;553;51.038;7.216;2023-03-20T02:07:12;9.00;99.90
1129;DHT22;553;51.038;7.216;2023-03-20T02:09:48;9.10;99.90
1129;DHT22;553;51.038;7.216;2023-03-20T02:12:21;9.20;99.90
1129;DHT22;553;51.038;7.216;2023-03-20T02:14:48;9.20;99.90
1129;DHT22;553;51.038;7.216;2023-03-20T02:17:40;9.30;99.90
1129;DHT22;553;51.038;7.216;2023-03-20T02:29:02;9.00;99.90
1129;DHT22;553;51.038;7.216;2023-03-20T02:40:38;9.00;99.90
1129;DHT22;553;51.038;7.216;2023-03-20T02:45:33;9.00;99.90
1129;DHT22;553;51.038;7.216;2023-03-20T02:48:35;9.00;99.90
1129;DHT22;553;51.038;7.216;2023-03-20T02:56:40;9.00;99.90
1129;DHT22;553;51.038;7.216;2023-03-20T02:59:47;9.10;99.90
1129;DHT22;553;51.038;7.216;2023-03-20T03:02:27;9.00;99.90
1129;DHT22;553;51.038;7.216;2023-03-20T03:05:00;9.20;99.90
1129;DHT22;553;51.038;7.216;2023-03-20T03:07:31;9.10;99.90
1129;DHT22;553;51.038;7.216;2023-03-20T03:10:18;9.20;99.90
1129;DHT22;553;51.038;7.216;2023-03-20T03:12:48;9.20;99.90
1129;DHT22;553;51.038;7.216;2023-03-20T03:15:31;9.20;99.90
1129;DHT22;553;51.038;7.216;2023-03-20T03:18:02;9.20;99.90
1129;DHT22;553;51.038;7.216;2023-03-20T03:20:35;9.20;99.90
1129;DHT22;553;51.038;7.216;2023-03-20T03:23:03;9.20;99.90
1129;DHT22;553;51.038;7.216;2023-03-20T03:25:33;9.30;99.90
1129;DHT22;553;51.038;7.216;2023-03-20T03:28:07;9.20;99.90
1129;DHT22;553;51.038;7.216;2023-03-20T03:30:38;9.20;99.90
1129;DHT22;553;51.038;7.216;2023-03-20T03:35:39;9.30;99.90
1129;DHT22;553;51.038;7.216;2023-03-20T03:38:29;9.30;99.90
1129;DHT22;553;51.038;7.216;2023-03-20T03:46:38;9.20;99.90
1129;DHT22;553;51.038;7.216;2023-03-20T03:49:11;9.20;99.90
1129;DHT22;553;51.038;7.216;2023-03-20T03:51:42;9.10;99.90
1129;DHT22;553;51.038;7.216;2023-03-20T03:54:18;9.10;99.90
1129;DHT22;553;51.038;7.216;2023-03-20T03:57:08;9.10;99.90
1129;DHT22;553;51.038;7.216;2023-03-20T03:59:39;9.00;99.90
1129;DHT22;553;51.038;7.216;2023-03-20T04:02:08;9.00;99.90
1129;DHT22;553;51.038;7.216;2023-03-20T04:04:41;9.00;99.90
1129;DHT22;553;51.038;7.216;2023-03-20T04:07:08;9.00;99.90
1129;DHT22;553;51.038;7.216;2023-03-20T04:09:35;9.00;99.90
1129;DHT22;553;51.038;7.216;2023-03-20T04:12:03;9.00;99.90
1129;DHT22;553;51.038;7.216;2023-03-20T04:14:31;8.90;99.90
1129;DHT22;553;51.038;7.216;2023-03-20T04:16:58;9.00;99.90
1129;DHT22;553;51.038;7.216;2023-03-20T04:19:26;9.00;99.90
1129;DHT22;553;51.038;7.216;2023-03-20T04:21:53;9.00;99.90
1129;DHT22;553;51.038;7.216;2023-03-20T04:24:20;9.00;99.90
1129;DHT22;553;51.038;7.216;2023-03-20T04:26:47;9.00;99.90
1129;DHT22;553;51.038;7.216;2023-03-20T04:29:14;9.00;99.90
1129;DHT22;553;51.038;7.216;2023-03-20T04:31:52;8.80;99.90
1129;DHT22;553;51.038;7.216;2023-03-20T04:34:39;8.70;99.90
1129;DHT22;553;51.038;7.216;2023-03-20T04:37:24;8.70;99.90
1129;DHT22;553;51.038;7.216;2023-03-20T04:40:00;8.80;99.90
1129;DHT22;553;51.038;7.216;2023-03-20T04:42:28;8.80;99.90
1129;DHT22;553;51.038;7.216;2023-03-20T04:44:59;8.70;99.90
1129;DHT22;553;51.038;7.216;2023-03-20T04:47:28;8.80;99.90
1129;DHT22;553;51.038;7.216;2023-03-20T04:49:55;8.80;99.90
1129;DHT22;553;51.038;7.216;2023-03-20T04:52:21;8.70;99.90
1129;DHT22;553;51.038;7.216;2023-03-20T04:54:49;8.60;99.90
1129;DHT22;553;51.038;7.216;2023-03-20T04:57:16;8.60;99.90
1129;DHT22;553;51.038;7.216;2023-03-20T04:59:43;8.60;99.90
1129;DHT22;553;51.038;7.216;2023-03-20T05:02:10;8.50;99.90
1129;DHT22;553;51.038;7.216;2023-03-20T05:04:41;8.60;99.90
1129;DHT22;553;51.038;7.216;2023-03-20T05:07:08;8.60;99.90
1129;DHT22;553;51.038;7.216;2023-03-20T05:09:48;8.50;99.90
1129;DHT22;553;51.038;7.216;2023-03-20T05:12:15;8.50;99.90
1129;DHT22;553;51.038;7.216;2023-03-20T05:15:05;8.50;99.90
1129;DHT22;553;51.038;7.216;2023-03-20T05:17:38;8.40;99.90
1129;DHT22;553;51.038;7.216;2023-03-20T05:20:13;8.50;99.90
1129;DHT22;553;51.038;7.216;2023-03-20T05:22:53;8.50;99.90
1129;DHT22;553;51.038;7.216;2023-03-20T05:25:52;8.50;99.90
1129;DHT22;553;51.038;7.216;2023-03-20T05:28:37;8.50;99.90
1129;DHT22;553;51.038;7.216;2023-03-20T05:31:10;8.50;99.90
1129;DHT22;553;51.038;7.216;2023-03-20T05:33:56;8.60;99.90
1129;DHT22;553;51.038;7.216;2023-03-20T05:36:36;8.60;99.90
1129;DHT22;553;51.038;7.216;2023-03-20T05:39:15;8.50;99.90
1129;DHT22;553;51.038;7.216;2023-03-20T05:42:08;8.40;99.90
1129;DHT22;553;51.038;7.216;2023-03-20T05:45:08;8.50;99.90
1129;DHT22;553;51.038;7.216;2023-03-20T05:47:46;8.50;99.90
1129;DHT22;553;51.038;7.216;2023-03-20T05:50:22;8.50;99.90
1129;DHT22;553;51.038;7.216;2023-03-20T05:53:09;8.50;99.90
1129;DHT22;553;51.038;7.216;2023-03-20T05:55:48;8.50;99.90
1129;DHT22;553;51.038;7.216;2023-03-20T05:58:35;8.50;99.90
1129;DHT22;553;51.038;7.216;2023-03-20T06:01:19;8.50;99.90
1129;DHT22;553;51.038;7.216;2023-03-20T06:04:15;8.50;99.90
1129;DHT22;553;51.038;7.216;2023-03-20T06:07:03;8.40;99.90
1129;DHT22;553;51.038;7.216;2023-03-20T06:09:30;8.30;99.90
1129;DHT22;553;51.038;7.216;2023-03-20T06:11:57;8.20;99.90
1129;DHT22;553;51.038;7.216;2023-03-20T06:14:25;8.20;99.90
1129;DHT22;553;51.038;7.216;2023-03-20T06:16:59;8.20;99.90
1129;DHT22;553;51.038;7.216;2023-03-20T06:19:26;8.20;99.90
1129;DHT22;553;51.038;7.216;2023-03-20T06:21:53;8.10;99.90
1129;DHT22;553;51.038;7.216;2023-03-20T06:24:20;8.20;99.90
1129;DHT22;553;51.038;7.216;2023-03-20T06:26:47;8.30;99.90
1129;DHT22;553;51.038;7.216;2023-03-20T06:29:14;8.30;99.90
1129;DHT22;553;51.038;7.216;2023-03-20T06:31:41;8.40;99.90
1129;DHT22;553;51.038;7.216;2023-03-20T06:34:13;8.40;99.90
1129;DHT22;553;51.038;7.216;2023-03-20T06:36:44;8.40;99.90
1129;DHT22;553;51.038;7.216;2023-03-20T06:39:19;8.30;99.90
1129;DHT22;553;51.038;7.216;2023-03-20T06:41:46;8.30;99.90
1129;DHT22;553;51.038;7.216;2023-03-20T06:44:13;8.50;99.90
1129;DHT22;553;51.038;7.216;2023-03-20T06:47:12;8.40;99.90
1129;DHT22;553;51.038;7.216;2023-03-20T06:49:39;8.30;99.90
1129;DHT22;553;51.038;7.216;2023-03-20T06:52:16;8.40;99.90
1129;DHT22;553;51.038;7.216;2023-03-20T06:54:49;8.40;99.90
1129;DHT22;553;51.038;7.216;2023-03-20T06:57:17;8.30;99.90
1129;DHT22;553;51.038;7.216;2023-03-20T06:59:44;8.50;99.90
1129;DHT22;553;51.038;7.216;2023-03-20T07:02:11;8.50;99.90
1129;DHT22;553;51.038;7.216;2023-03-20T07:04:38;8.50;99.90
1129;DHT22;553;51.038;7.216;2023-03-20T07:07:05;8.50;99.90
1129;DHT22;553;51.038;7.216;2023-03-20T07:09:33;8.40;99.90
1129;DHT22;553;51.038;7.216;2023-03-20T07:12:00;8.40;99.90
1129;DHT22;553;51.038;7.216;2023-03-20T07:14:29;8.40;99.90
1129;DHT22;553;51.038;7.216;2023-03-20T07:17:00;8.40;99.90
1129;DHT22;553;51.038;7.216;2023-03-20T07:19:27;8.40;99.90
1129;DHT22;553;51.038;7.216;2023-03-20T07:21:58;8.40;99.90
1129;DHT22;553;51.038;7.216;2023-03-20T07:24:30;8.30;99.90
1129;DHT22;553;51.038;7.216;2023-03-20T07:26:58;8.40;99.90
1129;DHT22;553;51.038;7.216;2023-03-20T07:29:26;8.40;99.90
1129;DHT22;553;51.038;7.216;2023-03-20T07:31:53;8.30;99.90
1129;DHT22;553;51.038;7.216;2023-03-20T07:34:28;8.30;99.90
1129;DHT22;553;51.038;7.216;2023-03-20T07:36:55;8.40;99.90
1129;DHT22;553;51.038;7.216;2023-03-20T07:39:22;8.50;99.90
1129;DHT22;553;51.038;7.216;2023-03-20T07:42:07;8.50;99.90
1129;DHT22;553;51.038;7.216;2023-03-20T07:44:44;8.50;99.90
1129;DHT22;553;51.038;7.216;2023-03-20T07:47:11;8.60;99.90
1129;DHT22;553;51.038;7.216;2023-03-20T07:49:37;8.70;99.90
1129;DHT22;553;51.038;7.216;2023-03-20T07:52:06;8.80;99.90
1129;DHT22;553;51.038;7.216;2023-03-20T07:54:33;8.80;99.90
1129;DHT22;553;51.038;7.216;2023-03-20T07:57:00;8.90;99.90
1129;DHT22;553;51.038;7.216;2023-03-20T07:59:27;8.90;99.90
1129;DHT22;553;51.038;7.216;2023-03-20T08:01:54;8.80;99.90
1129;DHT22;553;51.038;7.216;2023-03-20T08:04:20;8.80;99.90
1129;DHT22;553;51.038;7.216;2023-03-20T08:06:49;8.80;99.90
1129;DHT22;553;51.038;7.216;2023-03-20T08:09:16;8.80;99.90
1129;DHT22;553;51.038;7.216;2023-03-20T08:11:43;8.80;99.90
1129;DHT22;553;51.038;7.216;2023-03-20T08:14:10;8.90;99.90
1129;DHT22;553;51.038;7.216;2023-03-20T08:16:37;8.90;99.90
1129;DHT22;553;51.038;7.216;2023-03-20T08:19:04;9.00;99.90
1129;DHT22;553;51.038;7.216;2023-03-20T08:21:32;9.00;99.90
1129;DHT22;553;51.038;7.216;2023-03-20T08:23:59;9.10;99.90
1129;DHT22;553;51.038;7.216;2023-03-20T08:26:26;9.10;99.90
1129;DHT22;553;51.038;7.216;2023-03-20T08:28:53;9.10;99.90
1129;DHT22;553;51.038;7.216;2023-03-20T08:31:19;9.10;99.90
1129;DHT22;553;51.038;7.216;2023-03-20T08:33:46;9.20;99.90
1129;DHT22;553;51.038;7.216;2023-03-20T08:36:14;9.40;99.90
1129;DHT22;553;51.038;7.216;2023-03-20T08:38:42;9.50;99.90
1129;DHT22;553;51.038;7.216;2023-03-20T08:41:09;9.40;99.90
1129;DHT22;553;51.038;7.216;2023-03-20T08:43:35;9.30;99.90
1129;DHT22;553;51.038;7.216;2023-03-20T08:46:02;9.20;99.90
1129;DHT22;553;51.038;7.216;2023-03-20T08:48:30;9.20;99.90
1129;DHT22;553;51.038;7.216;2023-03-20T08:50:56;9.20;99.90
1129;DHT22;553;51.038;7.216;2023-03-20T08:53:23;9.30;99.90
1129;DHT22;553;51.038;7.216;2023-03-20T08:55:51;9.20;99.90
1129;DHT22;553;51.038;7.216;2023-03-20T08:58:18;9.20;99.90
1129;DHT22;553;51.038;7.216;2023-03-20T09:00:46;9.30;99.90
1129;DHT22;553;51.038;7.216;2023-03-20T09:03:14;9.40;99.90
1129;DHT22;553;51.038;7.216;2023-03-20T09:05:45;9.60;99.90
1129;DHT22;553;51.038;7.216;2023-03-20T09:08:13;9.60;99.90
1129;DHT22;553;51.038;7.216;2023-03-20T09:10:40;9.60;99.90
1129;DHT22;553;51.038;7.216;2023-03-20T09:13:07;9.50;99.90
1129;DHT22;553;51.038;7.216;2023-03-20T09:15:53;9.60;99.90
1129;DHT22;553;51.038;7.216;2023-03-20T09:18:20;9.50;99.80
1129;DHT22;553;51.038;7.216;2023-03-20T09:20:47;9.60;99.70
1129;DHT22;553;51.038;7.216;2023-03-20T09:23:14;9.70;99.90
1129;DHT22;553;51.038;7.216;2023-03-20T09:25:41;9.80;99.70
1129;DHT22;553;51.038;7.216;2023-03-20T09:28:08;9.90;99.90
1129;DHT22;553;51.038;7.216;2023-03-20T09:30:35;10.00;99.30
1129;DHT22;553;51.038;7.216;2023-03-20T09:33:02;9.90;98.20
1129;DHT22;553;51.038;7.216;2023-03-20T09:35:29;9.90;98.70
1129;DHT22;553;51.038;7.216;2023-03-20T09:37:56;10.00;98.90
1129;DHT22;553;51.038;7.216;2023-03-20T09:40:28;9.90;98.20
1129;DHT22;553;51.038;7.216;2023-03-20T09:45:36;9.80;98.40
1129;DHT22;553;51.038;7.216;2023-03-20T09:53:27;9.80;98.50
1129;DHT22;553;51.038;7.216;2023-03-20T09:55:56;9.80;98.70
1129;DHT22;553;51.038;7.216;2023-03-20T09:58:26;9.70;98.50
1129;DHT22;553;51.038;7.216;2023-03-20T10:00:58;9.70;98.70
1129;DHT22;553;51.038;7.216;2023-03-20T10:03:43;9.70;99.10
1129;DHT22;553;51.038;7.216;2023-03-20T10:06:14;9.60;99.20
1129;DHT22;553;51.038;7.216;2023-03-20T10:08:43;9.50;99.80
1129;DHT22;553;51.038;7.216;2023-03-20T10:13:52;9.70;99.30
1129;DHT22;553;51.038;7.216;2023-03-20T10:19:43;10.00;98.20
1129;DHT22;553;51.038;7.216;2023-03-20T10:22:16;9.90;97.90
1129;DHT22;553;51.038;7.216;2023-03-20T10:24:53;9.90;98.40
1129;DHT22;553;51.038;7.216;2023-03-20T10:27:33;10.00;99.00
1129;DHT22;553;51.038;7.216;2023-03-20T10:35:29;10.20;97.00
1129;DHT22;553;51.038;7.216;2023-03-20T10:40:55;10.10;97.00
1129;DHT22;553;51.038;7.216;2023-03-20T10:43:27;10.10;96.90
1129;DHT22;553;51.038;7.216;2023-03-20T10:46:05;10.10;97.00
1129;DHT22;553;51.038;7.216;2023-03-20T10:51:12;10.10;97.40
1129;DHT22;553;51.038;7.216;2023-03-20T10:53:54;10.10;97.70
1129;DHT22;553;51.038;7.216;2023-03-20T10:56:35;10.10;96.60
1129;DHT22;553;51.038;7.216;2023-03-20T10:59:16;10.30;96.80
1129;DHT22;553;51.038;7.216;2023-03-20T11:01:46;10.30;96.20
1129;DHT22;553;51.038;7.216;2023-03-20T11:04:13;10.30;96.50
1129;DHT22;553;51.038;7.216;2023-03-20T11:06:58;10.40;95.60
1129;DHT22;553;51.038;7.216;2023-03-20T11:09:26;10.50;95.80
1129;DHT22;553;51.038;7.216;2023-03-20T11:12:00;10.40;95.50
1129;DHT22;553;51.038;7.216;2023-03-20T11:14:37;10.40;95.10
1129;DHT22;553;51.038;7.216;2023-03-20T11:17:05;10.30;95.10
1129;DHT22;553;51.038;7.216;2023-03-20T11:19:37;10.30;94.90
1129;DHT22;553;51.038;7.216;2023-03-20T11:22:24;10.20;94.90
1129;DHT22;553;51.038;7.216;2023-03-20T11:24:53;10.30;94.50
1129;DHT22;553;51.038;7.216;2023-03-20T11:27:32;10.30;92.30
1129;DHT22;553;51.038;7.216;2023-03-20T11:30:03;10.40;92.30
1129;DHT22;553;51.038;7.216;2023-03-20T11:32:33;10.50;90.60
1129;DHT22;553;51.038;7.216;2023-03-20T11:35:20;10.40;91.60
1129;DHT22;553;51.038;7.216;2023-03-20T11:37:51;10.20;88.30
1129;DHT22;553;51.038;7.216;2023-03-20T11:40:32;10.20;87.80
1129;DHT22;553;51.038;7.216;2023-03-20T11:45:49;10.10;86.40
1129;DHT22;553;51.038;7.216;2023-03-20T11:48:17;10.00;87.10
1129;DHT22;553;51.038;7.216;2023-03-20T11:50:58;10.10;86.90
1129;DHT22;553;51.038;7.216;2023-03-20T11:53:29;10.30;87.80
1129;DHT22;553;51.038;7.216;2023-03-20T11:56:14;10.40;86.70
1129;DHT22;553;51.038;7.216;2023-03-20T12:01:45;10.40;86.90
1129;DHT22;553;51.038;7.216;2023-03-20T12:10:25;10.30;87.80
1129;DHT22;553;51.038;7.216;2023-03-20T12:15:17;10.50;88.90
1129;DHT22;553;51.038;7.216;2023-03-20T12:17:56;10.40;88.30
1129;DHT22;553;51.038;7.216;2023-03-20T12:20:34;10.40;88.30
1129;DHT22;553;51.038;7.216;2023-03-20T12:28:39;10.50;86.30
1129;DHT22;553;51.038;7.216;2023-03-20T12:33:56;11.20;99.90
1129;DHT22;553;51.038;7.216;2023-03-20T12:36:35;11.50;86.80
1129;DHT22;553;51.038;7.216;2023-03-20T12:39:09;11.10;86.40
1129;DHT22;553;51.038;7.216;2023-03-20T12:41:48;10.70;87.10
1129;DHT22;553;51.038;7.216;2023-03-20T12:56:10;10.10;90.30
1129;DHT22;553;51.038;7.216;2023-03-20T13:01:39;10.00;91.10
1129;DHT22;553;51.038;7.216;2023-03-20T13:07:16;10.10;91.80
1129;DHT22;553;51.038;7.216;2023-03-20T13:20:54;10.00;94.90
1129;DHT22;553;51.038;7.216;2023-03-20T13:23:40;9.80;95.80
1129;DHT22;553;51.038;7.216;2023-03-20T13:29:14;9.90;97.00
1129;DHT22;553;51.038;7.216;2023-03-20T13:34:50;9.90;96.20
1129;DHT22;553;51.038;7.216;2023-03-20T13:37:31;9.90;95.80
1129;DHT22;553;51.038;7.216;2023-03-20T13:40:15;9.90;95.50
1129;DHT22;553;51.038;7.216;2023-03-20T13:45:47;10.10;94.90
1129;DHT22;553;51.038;7.216;2023-03-20T13:48:35;10.10;94.30
1129;DHT22;553;51.038;7.216;2023-03-20T14:04:34;10.10;93.90
1129;DHT22;553;51.038;7.216;2023-03-20T14:07:01;10.10;94.20
1129;DHT22;553;51.038;7.216;2023-03-20T14:09:31;10.20;94.00
1129;DHT22;553;51.038;7.216;2023-03-20T14:14:30;10.40;92.70
1129;DHT22;553;51.038;7.216;2023-03-20T14:17:19;10.40;92.80
1129;DHT22;553;51.038;7.216;2023-03-20T14:19:47;10.50;92.80
1129;DHT22;553;51.038;7.216;2023-03-20T14:22:26;10.50;92.10
1129;DHT22;553;51.038;7.216;2023-03-20T14:24:58;10.60;92.40
1129;DHT22;553;51.038;7.216;2023-03-20T14:27:28;10.70;92.30
1129;DHT22;553;51.038;7.216;2023-03-20T14:35:50;10.70;92.50
1129;DHT22;553;51.038;7.216;2023-03-20T14:38:51;10.80;91.70
1129;DHT22;553;51.038;7.216;2023-03-20T14:41:28;10.90;92.30
1129;DHT22;553;51.038;7.216;2023-03-20T14:47:08;10.90;91.20
1129;DHT22;553;51.038;7.216;2023-03-20T14:49:52;10.90;91.60
1129;DHT22;553;51.038;7.216;2023-03-20T14:57:43;10.80;91.80
1129;DHT22;553;51.038;7.216;2023-03-20T15:00:24;10.80;92.10
1129;DHT22;553;51.038;7.216;2023-03-20T15:03:13;10.80;90.90
1129;DHT22;553;51.038;7.216;2023-03-20T15:05:41;10.90;91.30
1129;DHT22;553;51.038;7.216;2023-03-20T15:08:13;10.90;91.80
1129;DHT22;553;51.038;7.216;2023-03-20T15:10:47;10.90;90.70
1129;DHT22;553;51.038;7.216;2023-03-20T15:13:15;10.90;91.20
1129;DHT22;553;51.038;7.216;2023-03-20T15:16:02;10.80;91.40
1129;DHT22;553;51.038;7.216;2023-03-20T15:18:39;10.80;91.50
1129;DHT22;553;51.038;7.216;2023-03-20T15:21:18;10.80;91.80
1129;DHT22;553;51.038;7.216;2023-03-20T15:23:47;10.90;91.90
1129;DHT22;553;51.038;7.216;2023-03-20T15:26:15;10.90;91.70
1129;DHT22;553;51.038;7.216;2023-03-20T15:28:44;10.90;91.80
1129;DHT22;553;51.038;7.216;2023-03-20T15:31:22;11.00;91.60
1129;DHT22;553;51.038;7.216;2023-03-20T15:33:50;10.90;91.20
1129;DHT22;553;51.038;7.216;2023-03-20T15:36:19;11.00;91.90
1129;DHT22;553;51.038;7.216;2023-03-20T15:38:48;11.10;91.70
1129;DHT22;553;51.038;7.216;2023-03-20T15:43:52;11.10;91.90
1129;DHT22;553;51.038;7.216;2023-03-20T15:46:25;11.20;92.00
1129;DHT22;553;51.038;7.216;2023-03-20T15:48:52;11.20;91.20
1129;DHT22;553;51.038;7.216;2023-03-20T15:51:23;11.20;91.40
1129;DHT22;553;51.038;7.216;2023-03-20T15:53:52;11.30;91.50
1129;DHT22;553;51.038;7.216;2023-03-20T15:56:23;11.40;90.60
1129;DHT22;553;51.038;7.216;2023-03-20T15:58:52;11.30;91.00
1129;DHT22;553;51.038;7.216;2023-03-20T16:01:21;11.30;91.10
1129;DHT22;553;51.038;7.216;2023-03-20T16:03:50;11.20;91.80
1129;DHT22;553;51.038;7.216;2023-03-20T16:06:21;11.40;92.40
1129;DHT22;553;51.038;7.216;2023-03-20T16:09:00;11.40;92.00
1129;DHT22;553;51.038;7.216;2023-03-20T16:11:38;11.50;91.50
1129;DHT22;553;51.038;7.216;2023-03-20T16:14:09;11.40;91.20
1129;DHT22;553;51.038;7.216;2023-03-20T16:16:37;11.30;91.60
1129;DHT22;553;51.038;7.216;2023-03-20T16:19:05;11.30;92.10
1129;DHT22;553;51.038;7.216;2023-03-20T16:21:36;11.30;92.60
1129;DHT22;553;51.038;7.216;2023-03-20T16:24:07;11.30;93.60
1129;DHT22;553;51.038;7.216;2023-03-20T16:26:42;11.30;94.00
1129;DHT22;553;51.038;7.216;2023-03-20T16:29:12;11.20;92.10
1129;DHT22;553;51.038;7.216;2023-03-20T16:31:54;11.30;91.60
1129;DHT22;553;51.038;7.216;2023-03-20T16:34:34;11.30;92.60
1129;DHT22;553;51.038;7.216;2023-03-20T16:37:19;11.10;92.70
1129;DHT22;553;51.038;7.216;2023-03-20T16:39:47;11.30;92.40
1129;DHT22;553;51.038;7.216;2023-03-20T16:42:23;11.30;92.10
1129;DHT22;553;51.038;7.216;2023-03-20T16:44:56;11.20;93.00
1129;DHT22;553;51.038;7.216;2023-03-20T16:47:33;11.10;93.20
1129;DHT22;553;51.038;7.216;2023-03-20T16:50:20;11.10;93.40
1129;DHT22;553;51.038;7.216;2023-03-20T16:52:55;10.90;94.10
1129;DHT22;553;51.038;7.216;2023-03-20T16:55:27;11.00;93.40
1129;DHT22;553;51.038;7.216;2023-03-20T16:57:57;11.10;93.20
1129;DHT22;553;51.038;7.216;2023-03-20T17:00:28;11.10;93.80
1129;DHT22;553;51.038;7.216;2023-03-20T17:03:15;11.10;93.90
1129;DHT22;553;51.038;7.216;2023-03-20T17:06:06;11.10;94.00
1129;DHT22;553;51.038;7.216;2023-03-20T17:08:39;11.20;94.00
1129;DHT22;553;51.038;7.216;2023-03-20T17:11:13;11.20;94.10
1129;DHT22;553;51.038;7.216;2023-03-20T17:13:40;11.20;93.20
1129;DHT22;553;51.038;7.216;2023-03-20T17:16:13;11.20;93.20
1129;DHT22;553;51.038;7.216;2023-03-20T17:18:44;11.30;93.00
1129;DHT22;553;51.038;7.216;2023-03-20T17:21:12;11.20;93.50
1129;DHT22;553;51.038;7.216;2023-03-20T17:23:39;11.20;94.00
1129;DHT22;553;51.038;7.216;2023-03-20T17:26:10;11.30;94.00
1129;DHT22;553;51.038;7.216;2023-03-20T17:28:37;11.20;94.10
1129;DHT22;553;51.038;7.216;2023-03-20T17:31:04;11.30;94.00
1129;DHT22;553;51.038;7.216;2023-03-20T17:33:32;11.20;93.70
1129;DHT22;553;51.038;7.216;2023-03-20T17:35:59;11.20;93.70
1129;DHT22;553;51.038;7.216;2023-03-20T17:38:26;11.10;93.30
1129;DHT22;553;51.038;7.216;2023-03-20T17:40:53;11.10;93.60
1129;DHT22;553;51.038;7.216;2023-03-20T17:43:20;11.10;93.40
1129;DHT22;553;51.038;7.216;2023-03-20T17:45:47;10.90;94.00
1129;DHT22;553;51.038;7.216;2023-03-20T17:48:16;10.90;94.50
1129;DHT22;553;51.038;7.216;2023-03-20T17:50:45;10.90;96.10
1129;DHT22;553;51.038;7.216;2023-03-20T17:53:21;10.90;96.40
1129;DHT22;553;51.038;7.216;2023-03-20T17:55:50;10.90;95.50
1129;DHT22;553;51.038;7.216;2023-03-20T17:58:20;10.90;95.70
1129;DHT22;553;51.038;7.216;2023-03-20T18:00:49;10.90;96.10
1129;DHT22;553;51.038;7.216;2023-03-20T18:03:17;10.80;95.70
1129;DHT22;553;51.038;7.216;2023-03-20T18:05:49;10.80;95.90
1129;DHT22;553;51.038;7.216;2023-03-20T18:08:18;10.80;96.30
1129;DHT22;553;51.038;7.216;2023-03-20T18:10:50;10.90;97.00
1129;DHT22;553;51.038;7.216;2023-03-20T18:13:18;10.90;95.80
1129;DHT22;553;51.038;7.216;2023-03-20T18:15:47;10.80;95.80
1129;DHT22;553;51.038;7.216;2023-03-20T18:18:15;10.80;95.40
1129;DHT22;553;51.038;7.216;2023-03-20T18:20:42;10.80;94.70
1129;DHT22;553;51.038;7.216;2023-03-20T18:23:09;10.80;95.00
1129;DHT22;553;51.038;7.216;2023-03-20T18:25:36;10.80;94.40
1129;DHT22;553;51.038;7.216;2023-03-20T18:28:05;10.80;94.40
1129;DHT22;553;51.038;7.216;2023-03-20T18:30:36;10.80;94.30
1129;DHT22;553;51.038;7.216;2023-03-20T18:33:04;10.80;94.30
1129;DHT22;553;51.038;7.216;2023-03-20T18:35:31;10.80;93.80
1129;DHT22;553;51.038;7.216;2023-03-20T18:37:58;10.70;94.30
1129;DHT22;553;51.038;7.216;2023-03-20T18:40:27;10.80;94.60
1129;DHT22;553;51.038;7.216;2023-03-20T18:42:55;10.70;93.00
1129;DHT22;553;51.038;7.216;2023-03-20T18:45:26;10.70;92.60
1129;DHT22;553;51.038;7.216;2023-03-20T18:47:54;10.70;93.20
1129;DHT22;553;51.038;7.216;2023-03-20T18:50:33;10.80;92.90
1129;DHT22;553;51.038;7.216;2023-03-20T18:53:04;10.80;92.60
1129;DHT22;553;51.038;7.216;2023-03-20T18:55:32;10.80;92.70
1129;DHT22;553;51.038;7.216;2023-03-20T18:58:00;10.80;92.50
1129;DHT22;553;51.038;7.216;2023-03-20T19:00:37;10.80;91.90
1129;DHT22;553;51.038;7.216;2023-03-20T19:03:06;10.70;93.00
1129;DHT22;553;51.038;7.216;2023-03-20T19:05:33;10.80;93.80
1129;DHT22;553;51.038;7.216;2023-03-20T19:08:00;10.80;93.50
1129;DHT22;553;51.038;7.216;2023-03-20T19:10:30;10.90;93.00
1129;DHT22;553;51.038;7.216;2023-03-20T19:13:00;11.00;92.70
1129;DHT22;553;51.038;7.216;2023-03-20T19:15:29;11.00;92.50
1129;DHT22;553;51.038;7.216;2023-03-20T19:17:56;11.00;92.20
1129;DHT22;553;51.038;7.216;2023-03-20T19:22:55;11.00;93.00
1129;DHT22;553;51.038;7.216;2023-03-20T19:25:22;11.00;93.40
1129;DHT22;553;51.038;7.216;2023-03-20T19:27:49;10.90;92.90
1129;DHT22;553;51.038;7.216;2023-03-20T19:32:53;11.00;93.10
1129;DHT22;553;51.038;7.216;2023-03-20T19:35:21;10.90;93.60
1129;DHT22;553;51.038;7.216;2023-03-20T19:38:14;10.90;93.70
1129;DHT22;553;51.038;7.216;2023-03-20T19:40:43;10.90;93.70
1129;DHT22;553;51.038;7.216;2023-03-20T19:43:11;10.90;93.20
1129;DHT22;553;51.038;7.216;2023-03-20T19:45:40;10.90;93.60